createdAt,value
2023-01-17T00:06:21.676Z,194.87088
2023-01-17T00:21:24.045Z,62.86157
2023-01-17T00:36:26.257Z,10.77627
2023-01-17T00:51:28.585Z,0.89802
2023-01-17T01:06:30.993Z,0
2023-01-17T01:21:33.423Z,0
2023-01-17T01:36:35.683Z,0
2023-01-17T01:51:38.023Z,0
2023-01-17T02:06:40.553Z,0
2023-01-17T02:21:43.217Z,0
2023-01-17T02:36:45.633Z,0
2023-01-17T02:51:48.010Z,0
2023-01-17T03:06:50.232Z,0
2023-01-17T03:21:52.658Z,0
2023-01-17T03:36:55.093Z,0
2023-01-17T03:51:57.314Z,0
2023-01-17T04:06:59.871Z,0
2023-01-17T04:22:02.179Z,0
2023-01-17T04:37:04.371Z,0
2023-01-17T04:52:06.786Z,0
2023-01-17T05:07:09.105Z,0
2023-01-17T05:22:11.317Z,0
2023-01-17T05:37:13.539Z,0
2023-01-17T05:52:15.777Z,0
2023-01-17T06:07:17.943Z,0
2023-01-17T06:22:20.192Z,0
2023-01-17T06:37:22.454Z,0
2023-01-17T06:52:24.668Z,0
2023-01-17T07:07:27.206Z,0
2023-01-17T07:22:29.474Z,0
2023-01-17T07:37:31.825Z,0
2023-01-17T07:52:34.048Z,0
2023-01-17T08:07:36.493Z,0
2023-01-17T08:22:39.050Z,0
2023-01-17T08:37:41.355Z,0
2023-01-17T08:52:43.681Z,0
2023-01-17T09:07:47.629Z,0
2023-01-17T09:22:49.972Z,0
2023-01-17T09:37:52.206Z,0
2023-01-17T09:52:54.420Z,0
2023-01-17T10:07:56.664Z,0
2023-01-17T10:22:58.903Z,0
2023-01-17T10:38:01.280Z,0
2023-01-17T10:53:03.669Z,0
2023-01-17T11:08:05.897Z,0
2023-01-17T11:23:08.141Z,0
2023-01-17T11:38:10.374Z,0
2023-01-17T11:53:12.741Z,0
2023-01-17T12:08:14.941Z,0
2023-01-17T12:23:17.218Z,0
2023-01-17T12:38:31.728Z,0
2023-01-17T12:53:34.673Z,0
2023-01-17T13:08:36.960Z,0
2023-01-17T13:23:39.167Z,0
2023-01-17T13:38:41.428Z,0
2023-01-17T13:53:43.687Z,0
2023-01-17T14:08:45.927Z,0
2023-01-17T14:23:48.220Z,0
2023-01-17T14:38:50.454Z,0
2023-01-17T14:53:52.684Z,0
2023-01-17T15:08:54.935Z,0.89802
2023-01-17T15:23:57.291Z,5.38813
2023-01-17T15:38:59.670Z,30.53276
2023-01-17T15:54:02.059Z,103.27258
2023-01-17T16:09:04.291Z,199.36099
2023-01-17T16:24:06.498Z,331.3703
2023-01-17T16:39:08.750Z,430.15277
2023-01-17T16:54:11.096Z,669.02673
2023-01-17T17:09:13.345Z,748.05273
2023-01-17T17:24:15.786Z,929.45325
2023-01-17T17:39:18.019Z,1325.4812
2023-01-17T17:54:20.336Z,1574.2334
2023-01-17T18:09:22.691Z,2043.89917
2023-01-17T18:24:24.946Z,1971.1593
2023-01-17T18:39:27.272Z,1902.90967
2023-01-17T18:54:29.555Z,2257.62842
2023-01-17T19:09:31.825Z,2247.75024
2023-01-17T19:24:34.143Z,2492.01245
2023-01-17T19:39:36.502Z,2375.26953
2023-01-17T19:54:38.872Z,2469.56177
2023-01-17T20:09:41.130Z,2606.06128
2023-01-17T20:24:43.556Z,2770.39941
2023-01-17T20:39:45.864Z,2794.646
2023-01-17T20:54:48.113Z,2823.38257
2023-01-17T21:09:50.435Z,2684.18921
2023-01-17T21:24:52.772Z,2500.99268
2023-01-17T21:39:55.103Z,2127.41528
2023-01-17T21:54:57.374Z,1901.11353
2023-01-17T22:09:59.775Z,1761.02209
2023-01-17T22:25:02.197Z,1373.07642
2023-01-17T22:40:05.253Z,1109.05774
2023-01-17T22:55:07.748Z,867.48969
2023-01-17T23:10:10.016Z,616.0434
2023-01-17T23:25:12.532Z,442.72507
2023-01-17T23:40:14.725Z,281.97906
2023-01-17T23:55:16.952Z,155.35789
